Time,TemperatureF,DewpointF,PressureIn,WindDirection,WindDirectionDegrees,WindSpeedMPH,WindSpeedGustMPH,Humidity,HourlyPrecipIn,Conditions,Clouds,dailyrainin,SoftwareType,DateUTC
2013-09-28 07:50:00,46.2,45.5,30.28,East,94,0.0,1.0,97,0.00,,,0.00,meteohub,2013-09-28 11:50:00,
2013-09-28 07:53:00,46.2,45.5,30.28,East,94,0.0,1.0,97,0.00,,,0.00,meteohub,2013-09-28 11:53:00,
2013-09-28 07:59:00,46.2,45.5,30.29,East,94,0.0,1.0,97,0.00,,,0.00,meteohub,2013-09-28 11:59:00,
2013-09-28 08:02:00,46.2,45.5,30.29,East,94,0.0,1.0,97,0.00,,,0.00,meteohub,2013-09-28 12:02:00,
2013-09-28 08:07:00,46.6,45.9,30.29,East,94,0.0,0.0,97,0.00,,,0.00,meteohub,2013-09-28 12:07:00,
2013-09-28 08:12:00,46.8,46.0,30.29,East,97,0.0,1.0,97,0.00,,,0.00,meteohub,2013-09-28 12:12:00,
2013-09-28 08:17:00,46.9,46.2,30.29,East,97,0.0,1.0,97,0.00,,,0.00,meteohub,2013-09-28 12:17:00,
2013-09-28 08:18:00,46.9,46.2,30.29,East,97,0.0,1.0,97,0.00,,,0.00,meteohub,2013-09-28 12:18:00,
2013-09-28 08:24:00,46.9,46.2,30.30,East,97,0.0,1.0,97,0.00,,,0.00,meteohub,2013-09-28 12:24:00,
2013-09-28 08:30:00,47.1,46.4,30.30,East,98,0.0,1.0,97,0.00,,,0.00,meteohub,2013-09-28 12:30:00,
2013-09-28 08:36:00,47.1,46.4,30.30,East,99,0.0,1.0,97,0.00,,,0.00,meteohub,2013-09-28 12:36:00,
2013-09-28 08:42:00,47.5,46.8,30.30,East,98,0.0,1.0,97,0.00,,,0.00,meteohub,2013-09-28 12:42:00,
2013-09-28 08:47:00,47.7,46.9,30.30,North,355,0.0,2.0,97,0.00,,,0.00,meteohub,2013-09-28 12:47:00,
2013-09-28 08:52:00,47.7,46.9,30.30,North,355,0.0,2.0,97,0.00,,,0.00,meteohub,2013-09-28 12:52:00,
2013-09-28 08:57:00,47.8,46.9,30.30,North,355,0.0,2.0,97,0.00,,,0.00,meteohub,2013-09-28 12:57:00,
2013-09-28 09:03:00,48.0,47.1,30.30,North,355,0.0,1.0,97,0.00,,,0.00,meteohub,2013-09-28 13:03:00,
2013-09-28 09:09:00,48.4,47.5,30.30,North,355,0.0,1.0,97,0.00,,,0.00,meteohub,2013-09-28 13:09:00,
2013-09-28 09:15:00,48.6,47.7,30.30,North,355,0.0,0.0,97,0.00,,,0.00,meteohub,2013-09-28 13:15:00,
2013-09-28 09:22:00,48.6,47.7,30.30,North,355,0.0,0.0,97,0.00,,,0.00,meteohub,2013-09-28 13:22:00,
2013-09-28 09:27:00,48.7,47.8,30.30,North,355,0.0,1.0,97,0.00,,,0.00,meteohub,2013-09-28 13:27:00,
2013-09-28 09:32:00,48.9,48.0,30.30,NNE,13,0.0,1.0,97,0.00,,,0.00,meteohub,2013-09-28 13:32:00,
2013-09-28 09:37:00,49.3,48.4,30.30,NNE,21,0.0,1.0,97,0.00,,,0.00,meteohub,2013-09-28 13:37:00,
2013-09-28 09:42:00,49.6,48.7,30.31,North,5,2.0,2.0,97,0.00,,,0.00,meteohub,2013-09-28 13:42:00,
2013-09-28 09:47:00,50.0,49.1,30.31,NNW,348,0.0,2.0,97,0.00,,,0.00,meteohub,2013-09-28 13:47:00,
2013-09-28 09:52:00,50.4,49.8,30.31,NNW,348,0.0,2.0,98,0.00,,,0.00,meteohub,2013-09-28 13:52:00,
2013-09-28 09:57:00,50.5,49.6,30.31,NNW,348,0.0,2.0,97,0.00,,,0.00,meteohub,2013-09-28 13:57:00,
2013-09-28 10:02:00,50.9,50.4,30.31,NNW,348,0.0,1.0,98,0.00,,,0.00,meteohub,2013-09-28 14:02:00,
2013-09-28 10:07:00,51.3,50.4,30.31,NNW,348,0.0,1.0,97,0.00,,,0.00,meteohub,2013-09-28 14:07:00,
2013-09-28 10:12:00,51.6,51.1,30.31,NNW,348,0.0,2.0,98,0.00,,,0.00,meteohub,2013-09-28 14:12:00,
2013-09-28 10:17:00,52.2,51.3,30.31,NNW,348,0.0,2.0,97,0.00,,,0.00,meteohub,2013-09-28 14:17:00,
2013-09-28 10:22:00,52.2,51.6,30.31,NNW,348,0.0,1.0,98,0.00,,,0.00,meteohub,2013-09-28 14:22:00,
2013-09-28 10:27:00,52.3,51.8,30.31,NNW,348,0.0,1.0,98,0.00,,,0.00,meteohub,2013-09-28 14:27:00,
2013-09-28 10:32:00,52.9,52.3,30.31,NNW,346,1.0,1.0,98,0.00,,,0.00,meteohub,2013-09-28 14:32:00,
2013-09-28 10:37:00,53.1,52.2,30.31,NNW,346,0.0,2.0,97,0.00,,,0.00,meteohub,2013-09-28 14:37:00,
2013-09-28 10:42:00,53.2,52.3,30.32,NNW,346,0.0,2.0,97,0.00,,,0.00,meteohub,2013-09-28 14:42:00,
2013-09-28 10:47:00,53.8,53.2,30.31,NNW,346,0.0,2.0,98,0.00,,,0.00,meteohub,2013-09-28 14:47:00,
2013-09-28 10:52:00,54.0,53.1,30.31,NNW,346,1.0,0.0,97,0.00,,,0.00,meteohub,2013-09-28 14:52:00,
2013-09-28 10:59:00,54.3,53.4,30.32,NNW,343,1.0,2.0,97,0.00,,,0.00,meteohub,2013-09-28 14:59:00,
2013-09-28 11:05:00,54.7,54.1,30.32,NNW,336,0.0,2.0,98,0.00,,,0.00,meteohub,2013-09-28 15:05:00,
2013-09-28 11:11:00,55.0,54.1,30.32,NNW,336,0.0,2.0,97,0.00,,,0.00,meteohub,2013-09-28 15:11:00,
2013-09-28 11:17:00,55.2,54.3,30.32,NNW,331,2.0,2.0,97,0.00,,,0.00,meteohub,2013-09-28 15:17:00,
2013-09-28 11:22:00,55.8,54.9,30.32,NNW,331,0.0,2.0,97,0.00,,,0.00,meteohub,2013-09-28 15:22:00,
2013-09-28 11:27:00,56.1,55.0,30.32,NNW,330,1.0,2.0,96,0.00,,,0.00,meteohub,2013-09-28 15:27:00,
2013-09-28 11:32:00,56.7,55.2,30.32,NNW,330,0.0,2.0,95,0.00,,,0.00,meteohub,2013-09-28 15:32:00,
2013-09-28 11:37:00,57.0,55.2,30.32,NNW,330,0.0,2.0,94,0.00,,,0.00,meteohub,2013-09-28 15:37:00,
2013-09-28 11:42:00,57.6,55.6,30.31,NNW,330,1.0,3.0,93,0.00,,,0.00,meteohub,2013-09-28 15:42:00,
2013-09-28 11:47:00,57.9,55.2,30.31,NNW,344,1.0,3.0,91,0.00,,,0.00,meteohub,2013-09-28 15:47:00,
2013-09-28 11:52:00,58.3,55.6,30.31,NNW,343,2.0,3.0,91,0.00,,,0.00,meteohub,2013-09-28 15:52:00,
2013-09-28 11:59:00,59.0,55.8,30.31,NW,325,1.0,3.0,89,0.00,,,0.00,meteohub,2013-09-28 15:59:00,
2013-09-28 12:05:00,59.7,56.5,30.31,NW,325,0.0,3.0,89,0.00,,,0.00,meteohub,2013-09-28 16:05:00,
2013-09-28 12:11:00,60.3,56.7,30.31,NW,324,0.0,3.0,88,0.00,,,0.00,meteohub,2013-09-28 16:11:00,
2013-09-28 12:17:00,60.8,56.8,30.31,NW,324,1.0,2.0,87,0.00,,,0.00,meteohub,2013-09-28 16:17:00,
2013-09-28 12:22:00,61.2,56.3,30.31,NW,326,0.0,2.0,84,0.00,,,0.00,meteohub,2013-09-28 16:22:00,
2013-09-28 12:27:00,61.5,54.7,30.30,WNW,286,0.0,2.0,78,0.00,,,0.00,meteohub,2013-09-28 16:27:00,
2013-09-28 12:32:00,62.2,54.5,30.30,ESE,116,1.0,2.0,76,0.00,,,0.00,meteohub,2013-09-28 16:32:00,
2013-09-28 12:37:00,62.8,53.6,30.30,SSW,213,0.0,2.0,72,0.00,,,0.00,meteohub,2013-09-28 16:37:00,
2013-09-28 12:42:00,63.1,53.6,30.30,SE,140,0.0,2.0,71,0.00,,,0.00,meteohub,2013-09-28 16:42:00,
2013-09-28 12:47:00,63.3,54.5,30.30,SSE,160,0.0,1.0,73,0.00,,,0.00,meteohub,2013-09-28 16:47:00,
2013-09-28 12:52:00,63.7,53.8,30.30,SSW,200,1.0,1.0,70,0.00,,,0.00,meteohub,2013-09-28 16:52:00,
2013-09-28 12:57:00,63.9,54.3,30.30,West,265,0.0,5.0,71,0.00,,,0.00,meteohub,2013-09-28 16:57:00,
2013-09-28 13:02:00,63.9,53.4,30.30,South,188,0.0,5.0,69,0.00,,,0.00,meteohub,2013-09-28 17:02:00,
2013-09-28 13:07:00,63.9,53.4,30.30,South,187,0.0,5.0,69,0.00,,,0.00,meteohub,2013-09-28 17:07:00,
2013-09-28 13:12:00,63.9,52.7,30.30,SSW,211,1.0,2.0,67,0.00,,,0.00,meteohub,2013-09-28 17:12:00,
2013-09-28 13:17:00,63.7,52.9,30.29,ESE,122,0.0,2.0,68,0.00,,,0.00,meteohub,2013-09-28 17:17:00,
2013-09-28 13:22:00,63.7,53.2,30.29,SSE,167,0.0,2.0,69,0.00,,,0.00,meteohub,2013-09-28 17:22:00,
2013-09-28 13:27:00,63.9,53.4,30.29,SSE,167,0.0,2.0,69,0.00,,,0.00,meteohub,2013-09-28 17:27:00,
2013-09-28 13:32:00,63.9,53.4,30.29,ESE,107,1.0,2.0,69,0.00,,,0.00,meteohub,2013-09-28 17:32:00,
2013-09-28 13:39:00,63.7,52.5,30.28,SW,219,0.0,4.0,67,0.00,,,0.00,meteohub,2013-09-28 17:39:00,
2013-09-28 13:45:00,63.7,52.5,30.28,South,187,0.0,4.0,67,0.00,,,0.00,meteohub,2013-09-28 17:45:00,
2013-09-28 13:52:00,63.9,53.4,30.28,SSE,151,0.0,1.0,69,0.00,,,0.00,meteohub,2013-09-28 17:52:00,
2013-09-28 13:57:00,64.0,52.0,30.28,SSE,149,0.0,1.0,65,0.00,,,0.00,meteohub,2013-09-28 17:57:00,
2013-09-28 14:02:00,64.0,52.0,30.28,South,190,0.0,1.0,65,0.00,,,0.00,meteohub,2013-09-28 18:02:00,
2013-09-28 14:07:00,64.0,52.9,30.27,SSW,203,1.0,2.0,67,0.00,,,0.00,meteohub,2013-09-28 18:07:00,
2013-09-28 14:12:00,64.0,51.6,30.27,SSW,203,0.0,2.0,64,0.00,,,0.00,meteohub,2013-09-28 18:12:00,
2013-09-28 14:17:00,64.0,52.0,30.27,SSW,210,2.0,2.0,65,0.00,,,0.00,meteohub,2013-09-28 18:17:00,
2013-09-28 14:22:00,63.9,52.7,30.27,SSW,193,0.0,2.0,67,0.00,,,0.00,meteohub,2013-09-28 18:22:00,
2013-09-28 14:27:00,63.7,52.5,30.27,SSW,193,0.0,2.0,67,0.00,,,0.00,meteohub,2013-09-28 18:27:00,
2013-09-28 14:34:00,63.7,53.8,30.27,SSW,195,0.0,2.0,70,0.00,,,0.00,meteohub,2013-09-28 18:34:00,
2013-09-28 14:40:00,63.7,52.9,30.27,South,182,0.0,0.0,68,0.00,,,0.00,meteohub,2013-09-28 18:40:00,
2013-09-28 14:46:00,63.9,53.4,30.27,South,181,0.0,0.0,69,0.00,,,0.00,meteohub,2013-09-28 18:46:00,
2013-09-28 14:52:00,64.0,53.6,30.27,South,171,0.0,0.0,69,0.00,,,0.00,meteohub,2013-09-28 18:52:00,
2013-09-28 14:57:00,64.0,53.6,30.27,South,170,0.0,1.0,69,0.00,,,0.00,meteohub,2013-09-28 18:57:00,
2013-09-28 15:02:00,64.2,54.7,30.27,South,170,0.0,1.0,71,0.00,,,0.00,meteohub,2013-09-28 19:02:00,
2013-09-28 15:07:00,64.4,53.6,30.27,SSW,202,0.0,1.0,68,0.00,,,0.00,meteohub,2013-09-28 19:07:00,
2013-09-28 15:12:00,64.4,53.6,30.26,West,273,0.0,1.0,68,0.00,,,0.00,meteohub,2013-09-28 19:12:00,
2013-09-28 15:17:00,64.2,53.4,30.26,WNW,296,1.0,1.0,68,0.00,,,0.00,meteohub,2013-09-28 19:17:00,
2013-09-28 15:22:00,64.2,53.1,30.26,SW,234,0.0,2.0,67,0.00,,,0.00,meteohub,2013-09-28 19:22:00,
2013-09-28 15:27:00,64.2,53.1,30.26,South,189,0.0,2.0,67,0.00,,,0.00,meteohub,2013-09-28 19:27:00,
2013-09-28 15:32:00,64.2,53.4,30.26,South,189,0.0,2.0,68,0.00,,,0.00,meteohub,2013-09-28 19:32:00,
2013-09-28 15:37:00,64.2,52.7,30.26,South,189,0.0,1.0,66,0.00,,,0.00,meteohub,2013-09-28 19:37:00,
2013-09-28 15:42:00,64.2,53.1,30.26,South,189,0.0,0.0,67,0.00,,,0.00,meteohub,2013-09-28 19:42:00,
2013-09-28 15:47:00,64.2,53.4,30.25,South,189,0.0,1.0,68,0.00,,,0.00,meteohub,2013-09-28 19:47:00,
2013-09-28 15:52:00,64.0,53.2,30.25,South,189,0.0,1.0,68,0.00,,,0.00,meteohub,2013-09-28 19:52:00,
2013-09-28 15:57:00,64.2,54.3,30.25,South,189,0.0,1.0,70,0.00,,,0.00,meteohub,2013-09-28 19:57:00,
2013-09-28 16:02:00,64.2,52.2,30.25,South,189,0.0,1.0,65,0.00,,,0.00,meteohub,2013-09-28 20:02:00,
2013-09-28 16:07:00,64.2,54.3,30.25,South,190,0.0,1.0,70,0.00,,,0.00,meteohub,2013-09-28 20:07:00,
2013-09-28 16:12:00,64.2,53.4,30.25,SW,214,0.0,1.0,68,0.00,,,0.00,meteohub,2013-09-28 20:12:00,
2013-09-28 16:17:00,64.2,53.4,30.25,SSW,211,0.0,1.0,68,0.00,,,0.00,meteohub,2013-09-28 20:17:00,
2013-09-28 16:22:00,64.0,53.2,30.25,SSW,211,0.0,1.0,68,0.00,,,0.00,meteohub,2013-09-28 20:22:00,
2013-09-28 16:27:00,64.0,53.2,30.25,SSW,211,0.0,1.0,68,0.00,,,0.00,meteohub,2013-09-28 20:27:00,
2013-09-28 16:32:00,64.0,52.9,30.25,SSW,211,0.0,1.0,67,0.00,,,0.00,meteohub,2013-09-28 20:32:00,
2013-09-28 16:37:00,64.0,53.2,30.25,SSW,192,0.0,1.0,68,0.00,,,0.00,meteohub,2013-09-28 20:37:00,
2013-09-28 16:42:00,63.9,53.4,30.25,South,191,0.0,1.0,69,0.00,,,0.00,meteohub,2013-09-28 20:42:00,
2013-09-28 16:47:00,63.9,53.1,30.25,South,191,0.0,1.0,68,0.00,,,0.00,meteohub,2013-09-28 20:47:00,
2013-09-28 16:53:00,63.7,52.9,30.25,South,191,0.0,1.0,68,0.00,,,0.00,meteohub,2013-09-28 20:53:00,
2013-09-28 16:59:00,63.7,53.8,30.25,South,191,0.0,1.0,70,0.00,,,0.00,meteohub,2013-09-28 20:59:00,
2013-09-28 17:05:00,63.5,53.1,30.25,South,176,0.0,1.0,69,0.00,,,0.00,meteohub,2013-09-28 21:05:00,
2013-09-28 17:11:00,63.3,52.5,30.25,South,173,0.0,1.0,68,0.00,,,0.00,meteohub,2013-09-28 21:11:00,
2013-09-28 17:17:00,63.1,52.9,30.25,South,171,0.0,1.0,69,0.00,,,0.00,meteohub,2013-09-28 21:17:00,
2013-09-28 17:22:00,63.1,53.2,30.25,South,169,0.0,1.0,70,0.00,,,0.00,meteohub,2013-09-28 21:22:00,
2013-09-28 17:27:00,63.0,53.1,30.25,South,169,0.0,1.0,70,0.00,,,0.00,meteohub,2013-09-28 21:27:00,
2013-09-28 17:32:00,63.0,53.1,30.25,South,169,0.0,1.0,70,0.00,,,0.00,meteohub,2013-09-28 21:32:00,
2013-09-28 17:37:00,62.8,53.2,30.25,South,169,0.0,1.0,71,0.00,,,0.00,meteohub,2013-09-28 21:37:00,
2013-09-28 17:42:00,62.8,53.2,30.25,South,169,0.0,1.0,71,0.00,,,0.00,meteohub,2013-09-28 21:42:00,
2013-09-28 17:47:00,62.6,53.1,30.25,South,169,0.0,1.0,71,0.00,,,0.00,meteohub,2013-09-28 21:47:00,
2013-09-28 17:53:00,62.4,52.5,30.25,South,169,0.0,0.0,70,0.00,,,0.00,meteohub,2013-09-28 21:53:00,
2013-09-28 17:59:00,62.2,52.7,30.25,South,169,0.0,1.0,71,0.00,,,0.00,meteohub,2013-09-28 21:59:00,
2013-09-28 18:06:00,62.1,52.2,30.25,SSW,208,0.0,1.0,70,0.00,,,0.00,meteohub,2013-09-28 22:06:00,
2013-09-28 18:12:00,62.1,53.2,30.25,SSW,208,0.0,1.0,73,0.00,,,0.00,meteohub,2013-09-28 22:12:00,
2013-09-28 18:17:00,61.9,53.8,30.24,SSW,208,0.0,1.0,75,0.00,,,0.00,meteohub,2013-09-28 22:17:00,
2013-09-28 18:22:00,61.7,53.2,30.25,SSW,207,0.0,1.0,74,0.00,,,0.00,meteohub,2013-09-28 22:22:00,
2013-09-28 18:27:00,61.5,54.0,30.24,SSW,207,0.0,1.0,76,0.00,,,0.00,meteohub,2013-09-28 22:27:00,
2013-09-28 18:33:00,61.3,53.4,30.24,SSW,207,0.0,1.0,75,0.00,,,0.00,meteohub,2013-09-28 22:33:00,
2013-09-28 18:39:00,61.2,53.2,30.24,SSW,207,0.0,0.0,75,0.00,,,0.00,meteohub,2013-09-28 22:39:00,
2013-09-28 18:45:00,61.0,53.8,30.24,SSW,207,0.0,1.0,77,0.00,,,0.00,meteohub,2013-09-28 22:45:00,
2013-09-28 18:51:00,60.6,53.1,30.24,SSW,203,0.0,1.0,76,0.00,,,0.00,meteohub,2013-09-28 22:51:00,
2013-09-28 18:57:00,60.4,52.5,30.24,SSW,198,0.0,1.0,75,0.00,,,0.00,meteohub,2013-09-28 22:57:00,
2013-09-28 19:02:00,60.3,52.3,30.24,SSW,198,0.0,2.0,75,0.00,,,0.00,meteohub,2013-09-28 23:02:00,
2013-09-28 19:07:00,60.1,53.6,30.24,SSW,198,0.0,2.0,79,0.00,,,0.00,meteohub,2013-09-28 23:07:00,
2013-09-28 19:12:00,59.9,52.3,30.24,SSW,198,0.0,1.0,76,0.00,,,0.00,meteohub,2013-09-28 23:12:00,
2013-09-28 19:17:00,59.7,51.8,30.24,SSE,167,0.0,1.0,75,0.00,,,0.00,meteohub,2013-09-28 23:17:00,
2013-09-28 19:22:00,59.5,52.3,30.24,SSE,167,0.0,1.0,77,0.00,,,0.00,meteohub,2013-09-28 23:22:00,
2013-09-28 19:27:00,59.5,52.0,30.24,SSE,161,0.0,1.0,76,0.00,,,0.00,meteohub,2013-09-28 23:27:00,
2013-09-28 19:32:00,59.4,51.8,30.24,SSE,161,0.0,1.0,76,0.00,,,0.00,meteohub,2013-09-28 23:32:00,
2013-09-28 19:37:00,59.4,51.4,30.24,SSE,163,0.0,1.0,75,0.00,,,0.00,meteohub,2013-09-28 23:37:00,
2013-09-28 19:42:00,59.2,52.7,30.24,SSE,163,1.0,1.0,79,0.00,,,0.00,meteohub,2013-09-28 23:42:00,
2013-09-28 19:47:00,58.8,51.6,30.24,South,172,0.0,2.0,77,0.00,,,0.00,meteohub,2013-09-28 23:47:00,
2013-09-28 19:52:00,58.5,51.3,30.24,South,172,0.0,2.0,77,0.00,,,0.00,meteohub,2013-09-28 23:52:00,
2013-09-28 19:57:00,58.3,51.4,30.24,South,172,0.0,2.0,78,0.00,,,0.00,meteohub,2013-09-28 23:57:00,
2013-09-28 20:02:00,58.1,51.3,30.24,South,172,0.0,1.0,78,0.00,,,0.00,meteohub,2013-09-29 00:02:00,
2013-09-28 20:07:00,57.7,50.9,30.24,South,172,0.0,0.0,78,0.00,,,0.00,meteohub,2013-09-29 00:07:00,
2013-09-28 20:13:00,57.6,50.7,30.24,South,172,0.0,0.0,78,0.00,,,0.00,meteohub,2013-09-29 00:13:00,
2013-09-28 20:19:00,57.4,50.9,30.24,South,172,0.0,0.0,79,0.00,,,0.00,meteohub,2013-09-29 00:19:00,
2013-09-28 20:25:00,57.0,50.9,30.24,South,172,0.0,1.0,80,0.00,,,0.00,meteohub,2013-09-29 00:25:00,
2013-09-28 20:31:00,56.8,50.7,30.24,South,172,0.0,1.0,80,0.00,,,0.00,meteohub,2013-09-29 00:31:00,
2013-09-28 20:37:00,56.5,50.4,30.24,SSE,159,0.0,1.0,80,0.00,,,0.00,meteohub,2013-09-29 00:37:00,
2013-09-28 20:43:00,56.3,50.2,30.24,SSE,159,0.0,1.0,80,0.00,,,0.00,meteohub,2013-09-29 00:43:00,
2013-09-28 20:49:00,56.1,50.0,30.24,SSE,159,0.0,1.0,80,0.00,,,0.00,meteohub,2013-09-29 00:49:00,
2013-09-28 20:55:00,55.9,49.8,30.24,SSE,159,0.0,0.0,80,0.00,,,0.00,meteohub,2013-09-29 00:55:00,
2013-09-28 21:01:00,55.8,50.0,30.24,SSE,159,0.0,0.0,81,0.00,,,0.00,meteohub,2013-09-29 01:01:00,
2013-09-28 21:07:00,55.6,50.2,30.24,SSE,159,0.0,0.0,82,0.00,,,0.00,meteohub,2013-09-29 01:07:00,
2013-09-28 21:14:00,55.4,50.0,30.24,SSE,159,0.0,0.0,82,0.00,,,0.00,meteohub,2013-09-29 01:14:00,
2013-09-28 21:20:00,55.0,50.0,30.24,SSE,159,0.0,0.0,83,0.00,,,0.00,meteohub,2013-09-29 01:20:00,
2013-09-28 21:27:00,54.9,50.7,30.23,SW,234,0.0,0.0,86,0.00,,,0.00,meteohub,2013-09-29 01:27:00,
2013-09-28 21:32:00,54.7,50.5,30.23,WSW,251,0.0,0.0,86,0.00,,,0.00,meteohub,2013-09-29 01:32:00,
2013-09-28 21:38:00,54.5,50.4,30.24,WSW,251,0.0,0.0,86,0.00,,,0.00,meteohub,2013-09-29 01:38:00,
2013-09-28 21:44:00,54.7,50.9,30.24,WSW,251,0.0,0.0,87,0.00,,,0.00,meteohub,2013-09-29 01:44:00,
2013-09-28 21:50:00,54.7,50.9,30.23,WSW,251,0.0,0.0,87,0.00,,,0.00,meteohub,2013-09-29 01:50:00,
2013-09-28 21:56:00,54.5,50.7,30.23,WSW,251,0.0,0.0,87,0.00,,,0.00,meteohub,2013-09-29 01:56:00,
2013-09-28 22:02:00,54.3,50.5,30.24,WSW,251,0.0,0.0,87,0.00,,,0.00,meteohub,2013-09-29 02:02:00,
2013-09-28 22:07:00,54.1,50.7,30.23,WSW,253,0.0,0.0,88,0.00,,,0.00,meteohub,2013-09-29 02:07:00,
2013-09-28 22:12:00,54.0,50.7,30.23,WSW,253,0.0,0.0,89,0.00,,,0.00,meteohub,2013-09-29 02:12:00,
2013-09-28 22:17:00,53.6,50.7,30.24,WSW,253,0.0,0.0,90,0.00,,,0.00,meteohub,2013-09-29 02:17:00,
2013-09-28 22:24:00,53.2,50.4,30.23,SSE,152,0.0,0.0,90,0.00,,,0.00,meteohub,2013-09-29 02:24:00,
2013-09-28 22:30:00,53.2,50.7,30.23,South,173,0.0,0.0,91,0.00,,,0.00,meteohub,2013-09-29 02:30:00,
2013-09-28 22:36:00,53.1,50.5,30.23,South,173,0.0,2.0,91,0.00,,,0.00,meteohub,2013-09-29 02:36:00,
2013-09-28 22:42:00,53.1,50.5,30.24,South,173,0.0,2.0,91,0.00,,,0.00,meteohub,2013-09-29 02:42:00,
2013-09-28 22:47:00,52.9,50.4,30.24,South,175,0.0,2.0,91,0.00,,,0.00,meteohub,2013-09-29 02:47:00,
2013-09-28 22:52:00,52.9,50.4,30.24,South,175,0.0,2.0,91,0.00,,,0.00,meteohub,2013-09-29 02:52:00,
2013-09-28 22:57:00,52.9,50.4,30.24,SSE,165,0.0,2.0,91,0.00,,,0.00,meteohub,2013-09-29 02:57:00,
2013-09-28 23:02:00,52.9,50.4,30.24,SSE,165,0.0,1.0,91,0.00,,,0.00,meteohub,2013-09-29 03:02:00,
2013-09-28 23:07:00,52.9,50.4,30.23,SSE,165,0.0,1.0,91,0.00,,,0.00,meteohub,2013-09-29 03:07:00,
2013-09-28 23:12:00,52.7,50.2,30.23,SSE,165,0.0,1.0,91,0.00,,,0.00,meteohub,2013-09-29 03:12:00,
2013-09-28 23:18:00,52.5,50.0,30.23,SSE,165,0.0,0.0,91,0.00,,,0.00,meteohub,2013-09-29 03:18:00,
2013-09-28 23:25:00,52.3,49.8,30.23,SSE,165,0.0,0.0,91,0.00,,,0.00,meteohub,2013-09-29 03:25:00,
2013-09-28 23:31:00,52.0,49.5,30.23,SSE,165,0.0,0.0,91,0.00,,,0.00,meteohub,2013-09-29 03:31:00,
2013-09-28 23:37:00,51.6,49.1,30.23,SSE,165,0.0,0.0,91,0.00,,,0.00,meteohub,2013-09-29 03:37:00,
2013-09-28 23:42:00,51.4,49.3,30.22,SSE,165,0.0,0.0,92,0.00,,,0.00,meteohub,2013-09-29 03:42:00,
2013-09-28 23:47:00,51.1,48.9,30.22,SSE,165,1.0,0.0,92,0.00,,,0.00,meteohub,2013-09-29 03:47:00,
2013-09-28 23:52:00,51.1,48.9,30.22,SSE,163,0.0,1.0,92,0.00,,,0.00,meteohub,2013-09-29 03:52:00,
2013-09-28 23:58:00,50.7,48.7,30.22,SSE,163,0.0,1.0,93,0.00,,,0.00,meteohub,2013-09-29 03:58:00,